createdAt,value
2023-04-26T00:02:21.106Z,4.90
2023-04-26T00:04:52.080Z,5.00
2023-04-26T00:07:19.373Z,5.07
2023-04-26T00:09:46.384Z,5.40
2023-04-26T00:12:13.340Z,5.13
2023-04-26T00:14:40.268Z,4.37
2023-04-26T00:17:07.198Z,4.63
2023-04-26T00:19:34.132Z,4.57
2023-04-26T00:22:01.152Z,5.20
2023-04-26T00:24:28.054Z,4.40
2023-04-26T00:26:56.001Z,4.43
2023-04-26T00:29:23.152Z,4.50
2023-04-26T00:31:50.387Z,4.43
2023-04-26T00:34:17.548Z,4.30
2023-04-26T00:36:44.480Z,4.23
2023-04-26T00:39:11.436Z,4.30
2023-04-26T00:41:38.386Z,4.70
2023-04-26T00:44:05.531Z,4.10
2023-04-26T00:46:32.806Z,4.60
2023-04-26T00:49:00.023Z,4.50
2023-04-26T00:51:27.163Z,4.77
2023-04-26T00:53:54.411Z,4.10
2023-04-26T00:56:22.420Z,4.13
2023-04-26T00:58:49.937Z,3.80
2023-04-26T01:01:17.159Z,3.80
2023-04-26T01:03:46.870Z,3.53
2023-04-26T01:06:14.031Z,3.90
2023-04-26T01:08:41.564Z,3.80
2023-04-26T01:11:08.795Z,4.03
2023-04-26T01:13:37.153Z,4.20
2023-04-26T01:16:04.905Z,3.50
2023-04-26T01:18:31.801Z,3.60
2023-04-26T01:20:59.231Z,3.60
2023-04-26T01:23:26.993Z,3.67
2023-04-26T01:25:56.245Z,3.90
2023-04-26T01:28:23.305Z,4.30
2023-04-26T01:30:50.478Z,4.47
2023-04-26T01:33:17.431Z,3.77
2023-04-26T01:35:44.325Z,4.30
2023-04-26T01:38:11.412Z,4.10
2023-04-26T01:40:38.271Z,4.03
2023-04-26T01:43:05.166Z,4.43
2023-04-26T01:45:32.064Z,4.43
2023-04-26T01:47:59.021Z,4.70
2023-04-26T01:50:25.956Z,4.07
2023-04-26T01:52:52.846Z,4.00
2023-04-26T01:55:20.864Z,4.00
2023-04-26T01:57:47.737Z,4.03
2023-04-26T02:00:15.008Z,4.30
2023-04-26T02:02:41.975Z,4.30
2023-04-26T02:05:11.222Z,3.80
2023-04-26T02:07:38.797Z,3.60
2023-04-26T02:10:06.883Z,3.50
2023-04-26T02:12:33.860Z,3.80
2023-04-26T02:15:00.904Z,4.30
2023-04-26T02:17:29.215Z,4.27
2023-04-26T02:19:57.005Z,4.23
2023-04-26T02:22:25.427Z,4.30
2023-04-26T02:24:52.955Z,3.90
2023-04-26T02:27:20.442Z,3.43
2023-04-26T02:29:47.378Z,4.07
2023-04-26T02:32:14.508Z,3.97
2023-04-26T02:34:42.525Z,4.40
2023-04-26T02:37:09.518Z,4.30
2023-04-26T02:39:36.622Z,4.80
2023-04-26T02:42:03.677Z,4.20
2023-04-26T02:44:31.136Z,3.70
2023-04-26T02:46:58.494Z,3.80
2023-04-26T02:49:25.495Z,4.23
2023-04-26T02:51:52.386Z,4.40
2023-04-26T02:54:19.298Z,3.83
2023-04-26T02:56:46.586Z,3.70
2023-04-26T02:59:13.896Z,3.80
2023-04-26T03:01:40.874Z,4.10
2023-04-26T03:04:08.043Z,3.50
2023-04-26T03:06:35.779Z,2.67
2023-04-26T03:09:02.688Z,3.20
2023-04-26T03:11:29.557Z,3.20
2023-04-26T03:13:56.499Z,3.53
2023-04-26T03:16:23.949Z,3.63
2023-04-26T03:18:51.347Z,2.90
2023-04-26T03:21:18.552Z,2.83
2023-04-26T03:23:46.553Z,4.00
2023-04-26T03:26:13.478Z,3.87
2023-04-26T03:28:41.618Z,3.00
2023-04-26T03:31:08.513Z,3.37
2023-04-26T03:33:35.477Z,3.50
2023-04-26T03:36:02.625Z,3.47
2023-04-26T03:38:29.487Z,3.50
2023-04-26T03:40:56.527Z,2.90
2023-04-26T03:43:23.516Z,3.57
2023-04-26T03:45:52.243Z,3.20
2023-04-26T03:48:19.227Z,3.70
2023-04-26T03:50:47.434Z,3.43
2023-04-26T03:53:14.361Z,2.97
2023-04-26T03:55:42.344Z,3.50
2023-04-26T03:58:09.406Z,3.60
2023-04-26T04:00:42.272Z,3.87
2023-04-26T04:03:09.710Z,3.33
2023-04-26T04:05:37.324Z,3.63
2023-04-26T04:08:04.769Z,3.60
2023-04-26T04:10:31.756Z,3.60
2023-04-26T04:12:59.238Z,3.00
2023-04-26T04:15:26.901Z,3.50
2023-04-26T04:17:53.843Z,3.43
2023-04-26T04:20:21.440Z,3.57
2023-04-26T04:22:48.471Z,3.40
2023-04-26T04:25:16.374Z,3.57
2023-04-26T04:27:43.537Z,4.37
2023-04-26T04:30:12.356Z,3.50
2023-04-26T04:32:40.283Z,3.90
2023-04-26T04:35:07.801Z,3.43
2023-04-26T04:37:34.831Z,4.80
2023-04-26T04:40:03.228Z,4.73
2023-04-26T04:42:30.173Z,5.93
2023-04-26T04:44:57.574Z,4.23
2023-04-26T04:47:24.696Z,2.90
2023-04-26T04:49:51.747Z,3.27
2023-04-26T04:52:21.413Z,3.23
2023-04-26T04:54:48.734Z,2.70
2023-04-26T04:57:16.708Z,2.83
2023-04-26T04:59:43.749Z,3.13
2023-04-26T05:02:10.760Z,3.37
2023-04-26T05:04:37.834Z,3.53
2023-04-26T05:07:06.607Z,3.87
2023-04-26T05:09:33.772Z,3.77
2023-04-26T05:12:01.275Z,4.33
2023-04-26T05:14:30.371Z,3.80
2023-04-26T05:16:57.683Z,4.30
2023-04-26T05:19:25.303Z,4.13
2023-04-26T05:21:54.824Z,4.50
2023-04-26T05:24:21.799Z,4.30
2023-04-26T05:26:48.690Z,3.67
2023-04-26T05:29:15.661Z,3.40
2023-04-26T05:31:42.684Z,3.80
2023-04-26T05:34:09.591Z,3.07
2023-04-26T05:36:36.571Z,3.60
2023-04-26T05:39:05.752Z,3.37
2023-04-26T05:41:32.691Z,3.60
2023-04-26T05:43:59.581Z,3.80
2023-04-26T05:46:26.968Z,3.83
2023-04-26T05:48:53.981Z,3.47
2023-04-26T05:51:21.648Z,3.63
2023-04-26T05:53:48.604Z,3.77
2023-04-26T05:56:15.620Z,3.27
2023-04-26T05:58:42.592Z,3.10
2023-04-26T06:01:09.469Z,3.27
2023-04-26T06:03:37.396Z,3.40
2023-04-26T06:06:04.835Z,3.30
2023-04-26T06:08:31.731Z,3.73
2023-04-26T06:10:58.672Z,3.20
2023-04-26T06:13:26.168Z,3.50
2023-04-26T06:15:54.334Z,3.57
2023-04-26T06:18:21.298Z,3.67
2023-04-26T06:20:48.221Z,3.47
2023-04-26T06:23:15.340Z,3.30
2023-04-26T06:25:44.859Z,4.07
2023-04-26T06:28:14.986Z,4.37
2023-04-26T06:30:42.968Z,3.00
2023-04-26T06:33:09.962Z,3.53
2023-04-26T06:35:43.330Z,3.60
2023-04-26T06:38:12.621Z,3.70
2023-04-26T06:40:39.644Z,3.90
2023-04-26T06:43:06.542Z,4.30
2023-04-26T06:45:33.436Z,3.10
2023-04-26T06:48:04.857Z,3.60
2023-04-26T06:50:31.870Z,4.20
2023-04-26T06:52:58.866Z,3.83
2023-04-26T06:55:25.883Z,4.80
2023-04-26T06:57:52.817Z,3.87
2023-04-26T07:00:20.321Z,4.20
2023-04-26T07:02:47.365Z,4.10
2023-04-26T07:05:15.404Z,4.33
2023-04-26T07:07:42.409Z,4.10
2023-04-26T07:10:10.099Z,3.70
2023-04-26T07:12:37.050Z,4.07
2023-04-26T07:15:06.641Z,4.40
2023-04-26T07:17:33.657Z,4.63
2023-04-26T07:20:01.027Z,4.80
2023-04-26T07:22:28.159Z,4.00
2023-04-26T07:24:55.097Z,4.90
2023-04-26T07:27:22.065Z,4.47
2023-04-26T07:29:48.985Z,4.50
2023-04-26T07:32:16.142Z,5.47
2023-04-26T07:34:43.117Z,5.17
2023-04-26T07:37:10.012Z,4.90
2023-04-26T07:39:37.034Z,4.70
2023-04-26T07:42:04.190Z,4.70
2023-04-26T07:44:31.133Z,5.00
2023-04-26T07:46:58.214Z,4.90
2023-04-26T07:49:25.414Z,5.47
2023-04-26T07:51:52.480Z,5.70
2023-04-26T07:54:19.516Z,4.87
2023-04-26T07:56:46.514Z,4.93
2023-04-26T07:59:13.441Z,6.33
2023-04-26T08:01:40.446Z,4.70
2023-04-26T08:04:08.239Z,5.20
2023-04-26T08:06:36.039Z,5.60
2023-04-26T08:09:04.333Z,6.00
2023-04-26T08:11:31.360Z,4.50
2023-04-26T08:13:58.397Z,5.47
2023-04-26T08:16:25.302Z,5.30
2023-04-26T08:18:52.381Z,5.40
2023-04-26T08:21:19.259Z,6.23
2023-04-26T08:23:46.438Z,5.60
2023-04-26T08:26:13.422Z,5.70
2023-04-26T08:28:41.023Z,5.30
2023-04-26T08:31:08.516Z,5.53
2023-04-26T08:33:35.451Z,5.97
2023-04-26T08:36:02.431Z,5.10
2023-04-26T08:38:29.746Z,6.73
2023-04-26T08:41:03.043Z,5.40
2023-04-26T08:43:30.292Z,5.23
2023-04-26T08:46:00.157Z,4.27
2023-04-26T08:48:31.608Z,4.23
2023-04-26T08:50:58.807Z,3.90
2023-04-26T08:53:26.565Z,4.23
2023-04-26T08:55:54.334Z,4.90
2023-04-26T08:58:21.859Z,4.40
2023-04-26T09:00:50.346Z,3.93
2023-04-26T09:03:17.810Z,3.73
2023-04-26T09:05:45.714Z,4.40
2023-04-26T09:08:19.794Z,4.20
2023-04-26T09:10:46.770Z,4.37
2023-04-26T09:13:14.504Z,3.83
2023-04-26T09:15:42.109Z,3.90
2023-04-26T09:18:20.408Z,3.87
2023-04-26T09:21:06.971Z,4.00
2023-04-26T09:23:34.204Z,3.27
2023-04-26T09:26:21.039Z,3.50
2023-04-26T09:28:48.447Z,3.10
2023-04-26T09:31:42.423Z,3.97
2023-04-26T09:34:12.166Z,4.00
2023-04-26T09:36:52.603Z,3.43
2023-04-26T09:39:33.950Z,3.97
2023-04-26T09:42:01.961Z,3.70
2023-04-26T09:44:31.219Z,3.20
2023-04-26T09:47:07.359Z,3.47
2023-04-26T09:49:44.520Z,3.70
2023-04-26T09:52:11.616Z,3.90
2023-04-26T09:54:58.805Z,3.60
2023-04-26T09:57:25.788Z,3.83
2023-04-26T09:59:56.317Z,2.97
2023-04-26T10:02:26.403Z,3.43
2023-04-26T10:04:56.113Z,3.30
2023-04-26T10:07:25.831Z,3.27
2023-04-26T10:09:55.562Z,3.50
2023-04-26T10:12:22.900Z,3.77
2023-04-26T10:14:49.775Z,3.60
2023-04-26T10:17:19.009Z,2.90
2023-04-26T10:19:48.503Z,2.50
2023-04-26T10:22:29.288Z,2.77
2023-04-26T10:24:56.475Z,2.70
2023-04-26T10:27:44.681Z,2.97
2023-04-26T10:30:17.187Z,2.80
2023-04-26T10:32:56.167Z,3.80
2023-04-26T10:35:33.789Z,2.20
2023-04-26T10:38:00.834Z,3.27
2023-04-26T10:40:40.857Z,2.43
2023-04-26T10:43:14.792Z,2.07
2023-04-26T10:45:44.130Z,1.87
2023-04-26T10:48:38.982Z,1.90
2023-04-26T10:51:08.776Z,2.00
2023-04-26T10:53:35.698Z,2.37
2023-04-26T10:56:02.964Z,2.10
2023-04-26T10:58:30.707Z,2.00
2023-04-26T11:01:17.885Z,2.20
2023-04-26T11:04:12.834Z,1.90
2023-04-26T11:06:53.214Z,2.07
2023-04-26T11:09:49.511Z,1.97
2023-04-26T11:12:16.793Z,2.47
2023-04-26T11:14:46.285Z,2.53
2023-04-26T11:17:13.790Z,2.30
2023-04-26T11:19:42.019Z,2.13
2023-04-26T11:22:09.267Z,2.00
2023-04-26T11:24:36.891Z,1.60
2023-04-26T11:27:11.577Z,2.10
2023-04-26T11:29:39.320Z,1.90
2023-04-26T11:32:07.065Z,2.20
2023-04-26T11:34:39.271Z,1.67
2023-04-26T11:37:07.731Z,1.90
2023-04-26T11:39:36.140Z,1.90
2023-04-26T11:42:08.428Z,1.70
2023-04-26T11:44:37.411Z,2.00
2023-04-26T11:47:06.382Z,2.50
2023-04-26T11:49:36.316Z,2.30
2023-04-26T11:52:04.981Z,1.90
2023-04-26T11:54:37.731Z,2.33
2023-04-26T11:57:19.101Z,2.17
2023-04-26T11:59:46.758Z,2.50
2023-04-26T12:02:14.364Z,2.40
2023-04-26T12:04:41.836Z,2.37
2023-04-26T12:07:09.574Z,2.07
2023-04-26T12:09:44.369Z,2.40
2023-04-26T12:12:11.771Z,2.70
2023-04-26T12:14:40.425Z,2.33
2023-04-26T12:17:08.017Z,2.57
2023-04-26T12:19:40.104Z,2.63
2023-04-26T12:22:08.579Z,2.63
2023-04-26T12:24:37.264Z,2.70
2023-04-26T12:27:06.872Z,2.23
2023-04-26T12:29:34.790Z,2.60
2023-04-26T12:32:02.725Z,2.80
2023-04-26T12:34:29.933Z,2.80
2023-04-26T12:36:56.883Z,2.60
2023-04-26T12:39:23.838Z,2.33
2023-04-26T12:41:50.807Z,2.67
2023-04-26T12:44:19.070Z,2.57
2023-04-26T12:46:48.410Z,2.60
2023-04-26T12:49:15.420Z,2.20
2023-04-26T12:51:42.342Z,2.33
2023-04-26T12:54:09.348Z,2.30
2023-04-26T12:56:40.693Z,2.70
2023-04-26T12:59:07.664Z,2.27
2023-04-26T13:01:34.612Z,2.20
2023-04-26T13:04:04.703Z,3.00
2023-04-26T13:06:32.425Z,3.10
2023-04-26T13:08:59.989Z,2.23
2023-04-26T13:11:27.075Z,2.80
2023-04-26T13:13:54.156Z,2.63
2023-04-26T13:16:21.201Z,2.63
2023-04-26T13:18:48.265Z,2.70
2023-04-26T13:21:15.253Z,2.63
2023-04-26T13:23:42.348Z,2.10
2023-04-26T13:26:09.227Z,2.33
2023-04-26T13:28:37.149Z,2.70
2023-04-26T13:31:04.225Z,2.27
2023-04-26T13:33:31.240Z,2.37
2023-04-26T13:35:58.156Z,2.67
2023-04-26T13:38:26.922Z,2.70
2023-04-26T13:40:54.273Z,2.53
2023-04-26T13:43:21.166Z,2.67
2023-04-26T13:45:48.097Z,2.40
2023-04-26T13:48:15.235Z,2.40
2023-04-26T13:50:42.433Z,2.33
2023-04-26T13:53:09.385Z,2.37
2023-04-26T13:55:36.309Z,2.40
2023-04-26T13:58:03.270Z,2.60
2023-04-26T14:00:30.195Z,2.50
2023-04-26T14:02:57.310Z,2.50
2023-04-26T14:05:24.957Z,2.30
2023-04-26T14:07:54.231Z,3.20
2023-04-26T14:10:21.967Z,2.90
2023-04-26T14:12:48.919Z,3.23
2023-04-26T14:15:16.071Z,2.33
2023-04-26T14:17:43.202Z,2.30
2023-04-26T14:20:10.820Z,2.50
2023-04-26T14:22:37.740Z,2.60
2023-04-26T14:25:05.200Z,2.53
2023-04-26T14:27:32.671Z,2.30
2023-04-26T14:29:59.618Z,2.13
2023-04-26T14:32:26.896Z,2.40
2023-04-26T14:34:53.831Z,2.47
2023-04-26T14:37:22.741Z,2.20
2023-04-26T14:39:53.052Z,2.60
2023-04-26T14:42:20.098Z,2.27
2023-04-26T14:44:49.930Z,2.73
2023-04-26T14:47:16.995Z,2.53
2023-04-26T14:49:43.975Z,2.70
2023-04-26T14:52:11.036Z,2.87
2023-04-26T14:54:39.428Z,2.43
2023-04-26T14:57:06.907Z,2.40
2023-04-26T14:59:33.957Z,2.40
2023-04-26T15:02:01.131Z,2.00
2023-04-26T15:04:28.726Z,2.37
2023-04-26T15:06:56.887Z,2.70
2023-04-26T15:09:25.430Z,3.03
2023-04-26T15:11:52.444Z,2.73
2023-04-26T15:14:19.480Z,2.47
2023-04-26T15:16:46.601Z,2.40
2023-04-26T15:19:13.675Z,2.60
2023-04-26T15:21:40.861Z,2.40
2023-04-26T15:24:08.359Z,2.50
2023-04-26T15:26:35.321Z,2.70
2023-04-26T15:29:02.382Z,2.20
2023-04-26T15:31:29.379Z,1.90
2023-04-26T15:33:56.844Z,2.10
2023-04-26T15:36:24.026Z,2.33
2023-04-26T15:38:51.005Z,2.20
2023-04-26T15:41:18.052Z,2.00
2023-04-26T15:43:45.113Z,2.40
2023-04-26T15:46:15.551Z,2.63
2023-04-26T15:48:42.702Z,2.60
2023-04-26T15:51:09.688Z,2.43
2023-04-26T15:53:43.126Z,2.07
2023-04-26T15:56:17.915Z,2.17
2023-04-26T15:58:47.039Z,2.80
2023-04-26T16:01:14.965Z,2.30
2023-04-26T16:03:44.589Z,1.60
2023-04-26T16:06:13.568Z,2.20
2023-04-26T16:08:41.181Z,2.37
2023-04-26T16:11:08.353Z,2.10
2023-04-26T16:13:35.575Z,2.30
2023-04-26T16:16:06.902Z,2.07
2023-04-26T16:18:34.681Z,1.90
2023-04-26T16:21:06.849Z,2.27
2023-04-26T16:23:33.758Z,2.60
2023-04-26T16:26:01.455Z,2.23
2023-04-26T16:28:28.625Z,2.20
2023-04-26T16:30:55.979Z,2.20
2023-04-26T16:33:23.622Z,2.30
2023-04-26T16:35:52.656Z,2.40
2023-04-26T16:38:20.023Z,2.37
2023-04-26T16:40:58.589Z,2.07
2023-04-26T16:43:30.830Z,1.80
2023-04-26T16:46:08.569Z,2.30
2023-04-26T16:48:38.118Z,2.17
2023-04-26T16:51:07.866Z,2.07
2023-04-26T16:53:36.093Z,2.23
2023-04-26T16:56:03.726Z,2.10
2023-04-26T16:58:30.803Z,2.47
2023-04-26T17:00:58.051Z,2.10
2023-04-26T17:03:25.424Z,1.80
2023-04-26T17:05:52.730Z,2.43
2023-04-26T17:08:20.142Z,2.17
2023-04-26T17:10:47.818Z,2.40
2023-04-26T17:13:15.225Z,1.90
2023-04-26T17:15:43.323Z,1.80
2023-04-26T17:18:10.928Z,3.37
2023-04-26T17:20:38.101Z,2.10
2023-04-26T17:23:05.345Z,2.20
2023-04-26T17:25:32.255Z,2.33
2023-04-26T17:27:59.275Z,2.20
2023-04-26T17:30:26.351Z,2.63
2023-04-26T17:32:53.375Z,2.50
2023-04-26T17:35:20.537Z,2.93
2023-04-26T17:37:50.000Z,3.30
2023-04-26T17:40:18.704Z,2.83
2023-04-26T17:42:46.548Z,2.67
2023-04-26T17:45:14.642Z,2.67
2023-04-26T17:47:42.824Z,2.40
2023-04-26T17:50:10.521Z,3.00
2023-04-26T17:52:38.062Z,2.43
2023-04-26T17:55:08.169Z,3.17
2023-04-26T17:57:36.200Z,2.57
2023-04-26T18:00:04.298Z,2.70
2023-04-26T18:02:31.438Z,2.93
2023-04-26T18:04:58.585Z,2.70
2023-04-26T18:07:26.180Z,3.10
2023-04-26T18:09:53.109Z,2.97
2023-04-26T18:12:20.115Z,3.00
2023-04-26T18:14:47.126Z,3.27
2023-04-26T18:17:17.709Z,3.77
2023-04-26T18:19:44.703Z,3.70
2023-04-26T18:22:11.881Z,3.57
2023-04-26T18:24:38.903Z,3.73
2023-04-26T18:27:06.612Z,3.80
2023-04-26T18:29:33.598Z,3.30
2023-04-26T18:32:01.031Z,3.40
2023-04-26T18:34:27.989Z,3.27
2023-04-26T18:36:54.965Z,3.17
2023-04-26T18:39:21.947Z,3.70
2023-04-26T18:41:50.805Z,3.67
2023-04-26T18:44:18.492Z,3.77
2023-04-26T18:46:45.755Z,3.70
2023-04-26T18:49:12.748Z,3.40
2023-04-26T18:51:39.828Z,3.50
2023-04-26T18:54:06.713Z,3.27
2023-04-26T18:56:33.615Z,3.60
2023-04-26T18:59:00.854Z,3.80
2023-04-26T19:01:27.806Z,3.60
2023-04-26T19:03:55.564Z,3.33
2023-04-26T19:06:22.689Z,3.50
2023-04-26T19:08:49.649Z,3.77
2023-04-26T19:11:16.942Z,4.07
2023-04-26T19:13:44.352Z,3.40
2023-04-26T19:16:11.815Z,3.50
2023-04-26T19:18:41.902Z,3.43
2023-04-26T19:21:10.167Z,3.20
2023-04-26T19:23:37.565Z,3.27
2023-04-26T19:26:09.446Z,4.20
2023-04-26T19:28:37.897Z,4.17
2023-04-26T19:31:05.263Z,4.03
2023-04-26T19:33:32.886Z,4.07
2023-04-26T19:35:59.880Z,3.70
2023-04-26T19:38:26.825Z,4.37
2023-04-26T19:40:53.736Z,3.67
2023-04-26T19:43:21.072Z,4.10
2023-04-26T19:45:48.135Z,3.53
2023-04-26T19:48:15.371Z,4.00
2023-04-26T19:50:46.924Z,3.50
2023-04-26T19:53:15.402Z,3.40
2023-04-26T19:55:43.065Z,3.13
2023-04-26T19:58:11.005Z,4.20
2023-04-26T20:00:39.802Z,3.37
2023-04-26T20:03:06.969Z,3.70
2023-04-26T20:05:34.229Z,3.90
2023-04-26T20:08:01.777Z,3.07
2023-04-26T20:10:33.989Z,3.50
2023-04-26T20:13:01.476Z,3.10
2023-04-26T20:15:30.472Z,3.07
2023-04-26T20:17:58.717Z,3.30
2023-04-26T20:20:25.668Z,3.20
2023-04-26T20:22:52.753Z,3.17
2023-04-26T20:25:19.967Z,3.23
2023-04-26T20:27:47.719Z,3.37
2023-04-26T20:30:15.766Z,3.20
2023-04-26T20:32:43.205Z,2.83
2023-04-26T20:35:10.400Z,3.30
2023-04-26T20:37:37.311Z,2.93
2023-04-26T20:40:05.102Z,3.40
2023-04-26T20:42:32.024Z,3.10
2023-04-26T20:45:01.877Z,3.17
2023-04-26T20:47:29.542Z,3.10
2023-04-26T20:49:56.649Z,3.17
2023-04-26T20:52:23.673Z,2.80
2023-04-26T20:54:50.586Z,3.53
2023-04-26T20:57:17.572Z,3.43
2023-04-26T20:59:44.549Z,3.57
2023-04-26T21:02:11.683Z,3.80
2023-04-26T21:04:41.706Z,3.73
2023-04-26T21:07:10.479Z,4.00
2023-04-26T21:09:37.832Z,4.57
2023-04-26T21:12:05.571Z,4.63
2023-04-26T21:14:32.559Z,4.00
2023-04-26T21:17:01.053Z,5.10
2023-04-26T21:19:28.102Z,4.87
2023-04-26T21:21:55.009Z,3.80
2023-04-26T21:24:22.088Z,5.13
2023-04-26T21:26:48.956Z,5.43
2023-04-26T21:29:16.455Z,5.13
2023-04-26T21:31:43.408Z,5.60
2023-04-26T21:34:10.447Z,5.97
2023-04-26T21:36:37.320Z,5.07
2023-04-26T21:39:04.327Z,5.90
2023-04-26T21:41:31.305Z,5.63
2023-04-26T21:43:58.691Z,5.10
2023-04-26T21:46:26.228Z,5.10
2023-04-26T21:48:53.288Z,4.90
2023-04-26T21:51:20.182Z,5.00
2023-04-26T21:53:47.160Z,5.33
2023-04-26T21:56:14.718Z,5.23
2023-04-26T21:58:42.468Z,5.67
2023-04-26T22:01:11.397Z,4.80
2023-04-26T22:03:38.989Z,5.40
2023-04-26T22:06:07.741Z,5.40
2023-04-26T22:08:35.150Z,4.80
2023-04-26T22:11:02.765Z,5.10
2023-04-26T22:13:30.782Z,4.67
2023-04-26T22:15:57.770Z,5.10
2023-04-26T22:18:25.984Z,4.93
2023-04-26T22:20:53.608Z,5.30
2023-04-26T22:23:20.859Z,5.30
2023-04-26T22:25:47.740Z,5.23
2023-04-26T22:28:15.598Z,4.90
2023-04-26T22:30:42.584Z,4.50
2023-04-26T22:33:11.067Z,5.00
2023-04-26T22:35:38.347Z,4.73
2023-04-26T22:38:05.491Z,4.73
2023-04-26T22:40:32.684Z,4.97
2023-04-26T22:42:59.645Z,5.10
2023-04-26T22:45:26.992Z,4.80
2023-04-26T22:47:54.009Z,5.13
2023-04-26T22:50:21.547Z,4.40
2023-04-26T22:52:49.674Z,4.97
2023-04-26T22:55:17.380Z,4.83
2023-04-26T22:57:44.455Z,4.50
2023-04-26T23:00:12.604Z,4.10
2023-04-26T23:02:40.220Z,4.73
2023-04-26T23:05:10.849Z,4.97
2023-04-26T23:07:39.848Z,5.00
2023-04-26T23:10:07.791Z,4.30
2023-04-26T23:12:36.012Z,4.40
2023-04-26T23:15:05.348Z,4.40
2023-04-26T23:17:33.999Z,5.17
2023-04-26T23:20:01.632Z,4.80
2023-04-26T23:22:28.543Z,4.40
2023-04-26T23:24:55.865Z,5.20
2023-04-26T23:27:24.685Z,4.60
2023-04-26T23:29:51.736Z,5.00
2023-04-26T23:32:18.669Z,4.67
2023-04-26T23:34:45.590Z,5.40
2023-04-26T23:37:12.529Z,5.27
2023-04-26T23:39:39.429Z,5.27
2023-04-26T23:42:06.698Z,5.07
2023-04-26T23:44:33.837Z,4.90
2023-04-26T23:47:00.887Z,4.00
2023-04-26T23:49:27.953Z,4.47
2023-04-26T23:51:55.046Z,4.57
2023-04-26T23:54:22.019Z,4.40
2023-04-26T23:56:48.910Z,3.97
2023-04-26T23:59:16.814Z,5.20
